createdAt,value
2019-02-12T00:01:02.063Z,2.50
2019-02-12T00:03:06.279Z,2.60
2019-02-12T00:05:12.489Z,2.60
2019-02-12T00:07:16.919Z,2.70
2019-02-12T00:09:20.767Z,2.70
2019-02-12T00:11:24.678Z,2.70
2019-02-12T00:13:29.335Z,2.80
2019-02-12T00:15:33.579Z,2.80
2019-02-12T00:17:37.556Z,2.90
2019-02-12T00:19:41.894Z,2.90
2019-02-12T00:21:46.001Z,2.90
2019-02-12T00:23:50.416Z,2.90
2019-02-12T00:25:54.324Z,3.00
2019-02-12T00:27:58.404Z,3.00
2019-02-12T00:30:02.487Z,2.90
2019-02-12T00:32:07.039Z,3.00
2019-02-12T00:34:11.363Z,2.90
2019-02-12T00:36:15.875Z,3.00
2019-02-12T00:38:20.359Z,3.00
2019-02-12T00:40:24.423Z,3.00
2019-02-12T00:42:28.511Z,3.10
2019-02-12T00:44:33.296Z,3.00
2019-02-12T00:46:37.749Z,3.10
2019-02-12T00:48:42.231Z,3.20
2019-02-12T00:50:47.119Z,3.10
2019-02-12T00:52:51.028Z,3.10
2019-02-12T00:54:54.880Z,3.20
2019-02-12T00:56:58.803Z,3.20
2019-02-12T00:59:03.477Z,3.30
2019-02-12T01:01:08.280Z,3.30
2019-02-12T01:03:12.363Z,3.30
2019-02-12T01:05:16.509Z,3.30
2019-02-12T01:07:20.707Z,3.20
2019-02-12T01:09:25.824Z,3.20
2019-02-12T01:11:30.107Z,3.20
2019-02-12T01:13:34.571Z,3.30
2019-02-12T01:15:38.723Z,3.20
2019-02-12T01:17:43.275Z,3.30
2019-02-12T01:19:47.403Z,3.30
2019-02-12T01:21:51.619Z,3.30
2019-02-12T01:23:55.811Z,3.30
2019-02-12T01:25:59.967Z,3.30
2019-02-12T01:28:04.352Z,3.40
2019-02-12T01:30:11.689Z,3.40
2019-02-12T01:32:16.851Z,3.40
2019-02-12T01:34:20.760Z,3.40
2019-02-12T01:36:24.697Z,3.50
2019-02-12T01:38:29.069Z,3.50
2019-02-12T01:40:33.472Z,3.60
2019-02-12T01:42:37.377Z,3.60
2019-02-12T01:44:41.579Z,3.60
2019-02-12T01:46:45.550Z,3.60
2019-02-12T01:48:50.296Z,3.70
2019-02-12T01:50:54.655Z,3.60
2019-02-12T01:52:58.751Z,3.70
2019-02-12T01:55:02.583Z,3.60
2019-02-12T01:57:06.417Z,3.70
2019-02-12T01:59:10.787Z,3.70
2019-02-12T02:01:14.891Z,3.70
2019-02-12T02:03:18.949Z,3.70
2019-02-12T02:05:23.335Z,3.70
2019-02-12T02:07:27.427Z,3.70
2019-02-12T02:09:31.487Z,3.80
2019-02-12T02:11:35.463Z,3.80
2019-02-12T02:13:40.079Z,3.80
2019-02-12T02:15:44.311Z,3.90
2019-02-12T02:17:48.148Z,3.90
2019-02-12T02:19:52.031Z,3.90
2019-02-12T02:21:55.932Z,3.90
2019-02-12T02:23:59.838Z,3.90
2019-02-12T02:26:04.547Z,3.90
2019-02-12T02:28:08.911Z,3.90
2019-02-12T02:30:14.511Z,3.80
2019-02-12T02:32:19.734Z,3.90
2019-02-12T02:34:23.652Z,3.80
2019-02-12T02:36:28.067Z,3.80
2019-02-12T02:38:32.389Z,3.90
2019-02-12T02:40:37.063Z,3.80
2019-02-12T02:42:41.429Z,3.80
2019-02-12T02:44:45.651Z,3.80
2019-02-12T02:46:50.087Z,3.70
2019-02-12T02:48:54.234Z,3.70
2019-02-12T02:50:58.832Z,3.80
2019-02-12T02:53:03.230Z,3.70
2019-02-12T02:55:08.344Z,3.70
2019-02-12T02:57:12.211Z,3.60
2019-02-12T02:59:16.400Z,3.60
2019-02-12T03:01:20.341Z,3.60
2019-02-12T03:03:24.167Z,3.60
2019-02-12T03:05:28.523Z,3.60
2019-02-12T03:07:32.971Z,3.60
2019-02-12T03:09:36.918Z,3.60
2019-02-12T03:11:41.061Z,3.60
2019-02-12T03:13:45.230Z,3.60
2019-02-12T03:15:49.243Z,3.60
2019-02-12T03:17:53.600Z,3.60
2019-02-12T03:19:58.417Z,3.60
2019-02-12T03:22:04.078Z,3.60
2019-02-12T03:24:08.694Z,3.60
2019-02-12T03:26:13.837Z,3.60
2019-02-12T03:28:19.195Z,3.60
2019-02-12T03:30:23.101Z,3.60
2019-02-12T03:32:27.489Z,3.60
2019-02-12T03:34:31.700Z,3.60
2019-02-12T03:36:36.079Z,3.60
2019-02-12T03:38:39.909Z,3.60
2019-02-12T03:40:44.451Z,3.60
2019-02-12T03:42:48.845Z,3.50
2019-02-12T03:44:52.939Z,3.60
2019-02-12T03:46:58.220Z,3.60
2019-02-12T03:49:02.794Z,3.50
2019-02-12T03:53:23.219Z,3.50
2019-02-12T03:55:28.460Z,3.60
2019-02-12T03:57:32.493Z,3.60
2019-02-12T03:59:38.067Z,3.50
2019-02-12T04:01:42.876Z,3.60
2019-02-12T04:03:47.263Z,3.60
2019-02-12T04:05:51.121Z,3.50
2019-02-12T04:07:54.952Z,3.60
2019-02-12T04:09:58.818Z,3.60
2019-02-12T04:12:02.716Z,3.50
2019-02-12T04:14:07.691Z,3.60
2019-02-12T04:16:11.858Z,3.60
2019-02-12T04:18:15.991Z,3.50
2019-02-12T04:20:20.519Z,3.50
2019-02-12T04:22:24.472Z,3.50
2019-02-12T04:24:28.904Z,3.50
2019-02-12T04:26:33.795Z,3.50
2019-02-12T04:28:38.631Z,3.50
2019-02-12T04:30:42.523Z,3.40
2019-02-12T04:32:46.704Z,3.40
2019-02-12T04:34:52.043Z,3.40
2019-02-12T04:36:56.892Z,3.40
2019-02-12T04:39:01.910Z,3.40
2019-02-12T04:41:06.554Z,3.40
2019-02-12T04:43:10.380Z,3.50
2019-02-12T04:45:15.379Z,3.40
2019-02-12T04:47:19.807Z,3.40
2019-02-12T04:49:25.093Z,3.50
2019-02-12T04:51:29.517Z,3.40
2019-02-12T04:53:33.667Z,3.40
2019-02-12T04:55:38.067Z,3.40
2019-02-12T04:57:43.195Z,3.40
2019-02-12T04:59:47.399Z,3.50
2019-02-12T05:01:52.984Z,3.40
2019-02-12T05:03:57.421Z,3.30
2019-02-12T05:06:02.943Z,3.40
2019-02-12T05:08:07.221Z,3.40
2019-02-12T05:10:12.966Z,3.30
2019-02-12T05:12:18.683Z,3.30
2019-02-12T05:14:23.394Z,3.40
2019-02-12T05:16:27.304Z,3.40
2019-02-12T05:18:31.252Z,3.40
2019-02-12T05:20:35.499Z,3.40
2019-02-12T05:22:43.604Z,3.30
2019-02-12T05:24:46.037Z,3.30
2019-02-12T05:26:51.687Z,3.30
2019-02-12T05:28:56.743Z,3.40
2019-02-12T05:31:00.613Z,3.30
2019-02-12T05:33:06.087Z,3.40
2019-02-12T05:35:10.811Z,3.40
2019-02-12T05:37:15.193Z,3.40
2019-02-12T05:39:19.306Z,3.40
2019-02-12T05:41:23.734Z,3.40
2019-02-12T05:43:27.872Z,3.40
2019-02-12T05:45:32.577Z,3.50
2019-02-12T05:47:37.509Z,3.50
2019-02-12T05:49:41.902Z,3.60
2019-02-12T05:51:46.349Z,3.60
2019-02-12T05:53:50.788Z,3.60
2019-02-12T05:55:54.936Z,3.60
2019-02-12T05:58:00.138Z,3.60
2019-02-12T06:00:05.012Z,3.60
2019-02-12T06:02:09.387Z,3.70
2019-02-12T06:04:13.510Z,3.70
2019-02-12T06:06:17.441Z,3.70
2019-02-12T06:08:21.323Z,3.70
2019-02-12T06:10:26.092Z,3.60
2019-02-12T06:12:30.012Z,3.70
2019-02-12T06:14:34.339Z,3.80
2019-02-12T06:16:38.527Z,3.70
2019-02-12T06:18:43.042Z,3.70
2019-02-12T06:20:47.199Z,3.70
2019-02-12T06:22:51.328Z,3.70
2019-02-12T06:24:55.395Z,3.80
2019-02-12T06:27:00.121Z,3.70
2019-02-12T06:29:04.314Z,3.70
2019-02-12T06:31:08.521Z,3.70
2019-02-12T06:33:13.134Z,3.80
2019-02-12T06:35:17.280Z,3.80
2019-02-12T06:37:21.693Z,3.80
2019-02-12T06:39:26.140Z,3.80
2019-02-12T06:41:30.778Z,3.80
2019-02-12T06:43:34.621Z,3.80
2019-02-12T06:45:38.467Z,3.80
2019-02-12T06:47:42.292Z,3.80
2019-02-12T06:49:46.467Z,3.80
2019-02-12T06:51:50.610Z,3.80
2019-02-12T06:53:55.315Z,3.80
2019-02-12T06:55:59.343Z,3.80
2019-02-12T06:58:03.818Z,3.80
2019-02-12T07:00:09.215Z,3.80
2019-02-12T07:02:49.999Z,3.90
2019-02-12T07:04:54.355Z,3.90
2019-02-12T07:07:25.185Z,3.90
2019-02-12T07:09:46.876Z,3.90
2019-02-12T07:12:38.759Z,3.90
2019-02-12T07:14:56.122Z,4.00
2019-02-12T07:17:23.414Z,3.90
2019-02-12T07:19:35.095Z,3.90
2019-02-12T07:22:26.477Z,3.90
2019-02-12T07:25:07.339Z,3.90
2019-02-12T07:27:29.056Z,3.70
2019-02-12T07:30:15.882Z,3.60
2019-02-12T07:32:40.691Z,3.60
2019-02-12T07:35:11.955Z,3.60
2019-02-12T07:37:50.139Z,3.60
2019-02-12T07:40:22.110Z,3.50
2019-02-12T07:43:02.964Z,3.50
2019-02-12T07:45:37.630Z,3.60
2019-02-12T07:48:29.515Z,3.60
2019-02-12T07:51:01.144Z,3.50
2019-02-12T07:53:30.625Z,3.60
2019-02-12T07:55:57.159Z,3.70
2019-02-12T07:58:36.967Z,3.70
2019-02-12T08:00:56.219Z,3.80
2019-02-12T08:03:24.419Z,3.80
2019-02-12T08:06:06.616Z,3.90
2019-02-12T08:08:57.401Z,3.90
2019-02-12T08:11:48.229Z,3.90
2019-02-12T08:14:22.775Z,4.00
2019-02-12T08:16:49.307Z,4.20
2019-02-12T08:19:46.639Z,4.20
2019-02-12T08:22:27.308Z,4.20
2019-02-12T08:25:07.075Z,4.30
2019-02-12T08:27:59.647Z,4.30
2019-02-12T08:30:44.328Z,4.30
2019-02-12T08:33:24.998Z,4.40
2019-02-12T08:35:59.598Z,4.50
2019-02-12T08:38:17.663Z,4.50
2019-02-12T08:41:03.713Z,4.60
2019-02-12T08:43:43.363Z,4.60
2019-02-12T08:46:12.735Z,4.60
2019-02-12T08:48:29.953Z,4.70
2019-02-12T08:51:24.611Z,4.60
2019-02-12T08:53:59.784Z,4.70
2019-02-12T08:56:42.100Z,4.80
2019-02-12T08:59:13.407Z,4.80
2019-02-12T09:02:01.356Z,4.90
2019-02-12T09:04:35.471Z,4.90
2019-02-12T09:07:04.177Z,4.90
2019-02-12T09:09:44.409Z,5.00
2019-02-12T09:12:48.235Z,5.00
2019-02-12T09:15:20.566Z,5.00
2019-02-12T09:18:07.324Z,5.10
2019-02-12T09:20:32.327Z,5.10
2019-02-12T09:23:07.635Z,5.10
2019-02-12T09:25:28.537Z,5.20
2019-02-12T09:27:51.217Z,5.20
2019-02-12T09:30:13.399Z,5.40
2019-02-12T09:32:54.699Z,5.80
2019-02-12T09:35:17.293Z,5.90
2019-02-12T09:37:47.717Z,5.60
2019-02-12T09:40:42.338Z,5.60
2019-02-12T09:42:58.903Z,5.50
2019-02-12T09:46:01.920Z,5.40
2019-02-12T09:48:39.339Z,5.40
2019-02-12T09:51:20.263Z,5.40
2019-02-12T09:53:46.571Z,5.30
2019-02-12T09:56:16.457Z,5.40
2019-02-12T09:58:57.824Z,5.40
2019-02-12T10:01:28.869Z,5.40
2019-02-12T10:04:32.967Z,5.40
2019-02-12T10:07:02.112Z,5.30
2019-02-12T10:09:41.615Z,5.20
2019-02-12T10:12:03.298Z,5.20
2019-02-12T10:14:44.214Z,5.00
2019-02-12T10:17:08.699Z,5.20
2019-02-12T10:19:43.523Z,5.10
2019-02-12T10:22:16.416Z,5.00
2019-02-12T10:24:50.954Z,5.20
2019-02-12T10:27:19.896Z,5.30
2019-02-12T10:30:01.904Z,5.30
2019-02-12T10:32:08.610Z,5.30
2019-02-12T10:34:10.893Z,5.20
2019-02-12T10:36:15.011Z,5.30
2019-02-12T10:38:19.399Z,5.50
2019-02-12T10:40:24.172Z,5.50
2019-02-12T10:42:29.130Z,5.40
2019-02-12T10:44:33.900Z,5.40
2019-02-12T10:46:37.842Z,5.50
2019-02-12T10:48:42.100Z,5.60
2019-02-12T10:50:46.754Z,5.50
2019-02-12T10:52:51.191Z,5.50
2019-02-12T10:54:55.686Z,5.70
2019-02-12T10:57:00.663Z,5.80
2019-02-12T10:59:05.079Z,5.70
2019-02-12T11:01:09.315Z,5.90
2019-02-12T11:03:13.767Z,5.90
2019-02-12T11:05:17.712Z,5.90
2019-02-12T11:07:22.536Z,6.10
2019-02-12T11:09:27.286Z,5.90
2019-02-12T11:11:31.727Z,6.10
2019-02-12T11:13:36.375Z,6.20
2019-02-12T11:15:40.255Z,6.30
2019-02-12T11:17:44.667Z,6.30
2019-02-12T11:19:49.015Z,6.30
2019-02-12T11:21:53.247Z,6.30
2019-02-12T11:23:57.919Z,6.40
2019-02-12T11:26:01.797Z,6.50
2019-02-12T11:28:06.074Z,6.50
2019-02-12T11:30:11.294Z,6.70
2019-02-12T11:32:15.709Z,6.70
2019-02-12T11:34:20.483Z,6.60
2019-02-12T11:36:24.859Z,6.50
2019-02-12T11:38:29.359Z,6.70
2019-02-12T11:40:34.639Z,6.70
2019-02-12T11:42:38.602Z,6.80
2019-02-12T11:44:42.555Z,7.00
2019-02-12T11:46:47.782Z,7.10
2019-02-12T11:48:52.179Z,7.10
2019-02-12T11:50:56.095Z,6.80
2019-02-12T11:53:00.815Z,7.10
2019-02-12T11:55:05.371Z,7.10
2019-02-12T11:57:09.584Z,7.20
2019-02-12T11:59:14.031Z,7.20
2019-02-12T12:01:21.566Z,7.30
2019-02-12T12:03:25.789Z,7.60
2019-02-12T12:05:29.671Z,7.40
2019-02-12T12:07:34.391Z,7.20
2019-02-12T12:09:38.848Z,7.20
2019-02-12T12:11:42.839Z,7.30
2019-02-12T12:13:48.127Z,7.20
2019-02-12T12:15:52.500Z,7.00
2019-02-12T12:17:57.155Z,6.90
2019-02-12T12:20:02.113Z,7.10
2019-02-12T12:22:06.036Z,7.10
2019-02-12T12:24:09.979Z,7.10
2019-02-12T12:26:14.056Z,7.30
2019-02-12T12:28:18.403Z,7.20
2019-02-12T12:30:22.234Z,7.30
2019-02-12T12:32:26.219Z,7.60
2019-02-12T12:34:30.771Z,8.20
2019-02-12T12:36:34.679Z,8.70
2019-02-12T12:38:39.111Z,8.60
2019-02-12T12:40:44.144Z,8.50
2019-02-12T12:42:48.574Z,7.70
2019-02-12T12:44:53.478Z,7.70
2019-02-12T12:46:57.491Z,8.20
2019-02-12T12:49:01.650Z,8.10
2019-02-12T12:51:06.049Z,8.40
2019-02-12T12:53:10.807Z,8.80
2019-02-12T12:55:14.952Z,8.70
2019-02-12T12:57:20.687Z,9.00
2019-02-12T12:59:24.555Z,9.00
2019-02-12T13:01:28.462Z,8.60
2019-02-12T13:03:32.669Z,8.70
2019-02-12T13:05:36.773Z,8.40
2019-02-12T13:07:40.822Z,8.10
2019-02-12T13:09:44.969Z,7.70
2019-02-12T13:11:49.150Z,7.30
2019-02-12T13:13:53.331Z,7.30
2019-02-12T13:15:57.875Z,7.90
2019-02-12T13:18:02.548Z,8.20
2019-02-12T13:20:09.621Z,8.50
2019-02-12T13:22:13.993Z,8.50
2019-02-12T13:24:18.515Z,8.80
2019-02-12T13:26:22.355Z,9.10
2019-02-12T13:28:26.724Z,9.30
2019-02-12T13:30:30.882Z,9.60
2019-02-12T13:32:36.031Z,9.70
2019-02-12T13:34:39.903Z,9.90
2019-02-12T13:36:44.251Z,9.40
2019-02-12T13:38:48.139Z,8.70
2019-02-12T13:40:52.023Z,8.10
2019-02-12T13:42:57.024Z,8.10
2019-02-12T13:45:02.566Z,7.90
2019-02-12T13:47:07.043Z,7.70
2019-02-12T13:49:12.076Z,7.90
2019-02-12T13:51:16.707Z,7.80
2019-02-12T13:53:21.975Z,7.60
2019-02-12T13:55:25.851Z,7.40
2019-02-12T13:57:30.296Z,7.50
2019-02-12T13:59:34.186Z,7.30
2019-02-12T14:01:38.411Z,7.10
2019-02-12T14:03:43.387Z,7.00
2019-02-12T14:05:47.927Z,7.10
2019-02-12T14:07:53.006Z,7.00
2019-02-12T14:09:57.311Z,7.10
2019-02-12T14:12:01.613Z,7.10
2019-02-12T14:14:05.694Z,7.10
2019-02-12T14:16:09.628Z,7.10
2019-02-12T14:18:13.655Z,7.10
2019-02-12T14:20:18.159Z,6.90
2019-02-12T14:22:22.827Z,7.00
2019-02-12T14:24:28.147Z,7.10
2019-02-12T14:26:32.376Z,7.10
2019-02-12T14:28:37.475Z,7.20
2019-02-12T14:30:41.910Z,7.30
2019-02-12T14:32:45.848Z,7.40
2019-02-12T14:34:50.948Z,7.30
2019-02-12T14:36:57.216Z,7.30
2019-02-12T14:39:01.770Z,7.30
2019-02-12T14:41:06.528Z,7.20
2019-02-12T14:43:14.035Z,7.20
2019-02-12T14:45:18.711Z,7.30
2019-02-12T14:47:23.686Z,7.30
2019-02-12T14:49:27.895Z,7.40
2019-02-12T14:51:32.010Z,7.60
2019-02-12T14:53:36.216Z,7.70
2019-02-12T14:55:40.929Z,7.90
2019-02-12T14:57:44.900Z,7.90
2019-02-12T14:59:48.983Z,8.10
2019-02-12T15:01:52.870Z,8.20
2019-02-12T15:03:57.978Z,7.90
2019-02-12T15:06:05.433Z,7.90
2019-02-12T15:08:10.501Z,7.90
2019-02-12T15:10:15.339Z,8.10
2019-02-12T15:12:19.274Z,8.00
2019-02-12T15:14:23.870Z,7.50
2019-02-12T15:16:28.431Z,7.40
2019-02-12T15:18:33.095Z,7.30
2019-02-12T15:20:37.855Z,7.30
2019-02-12T15:22:42.042Z,7.30
2019-02-12T15:24:46.151Z,7.20
2019-02-12T15:26:51.039Z,7.20
2019-02-12T15:28:55.469Z,7.20
2019-02-12T15:30:59.897Z,7.20
2019-02-12T15:33:04.100Z,7.20
2019-02-12T15:35:10.719Z,7.10
2019-02-12T15:37:14.607Z,7.10
2019-02-12T15:39:18.615Z,7.00
2019-02-12T15:41:22.823Z,7.00
2019-02-12T15:43:28.259Z,7.00
2019-02-12T15:45:33.460Z,7.10
2019-02-12T15:47:38.171Z,7.00
2019-02-12T15:49:42.324Z,7.00
2019-02-12T15:51:46.709Z,6.90
2019-02-12T15:53:51.145Z,7.00
2019-02-12T15:55:55.586Z,6.90
2019-02-12T15:57:59.518Z,6.80
2019-02-12T16:00:05.599Z,6.90
2019-02-12T16:02:11.621Z,6.90
2019-02-12T16:04:16.499Z,6.90
2019-02-12T16:06:21.134Z,6.80
2019-02-12T16:08:25.156Z,6.90
2019-02-12T16:10:29.721Z,6.90
2019-02-12T16:12:33.901Z,6.90
2019-02-12T16:14:37.817Z,6.90
2019-02-12T16:16:42.514Z,6.90
2019-02-12T16:18:48.124Z,6.80
2019-02-12T16:20:52.721Z,6.80
2019-02-12T16:22:57.405Z,6.80
2019-02-12T16:25:01.427Z,6.80
2019-02-12T16:27:05.871Z,6.90
2019-02-12T16:29:10.491Z,6.90
2019-02-12T16:31:14.635Z,7.00
2019-02-12T16:33:18.484Z,7.00
2019-02-12T16:35:22.366Z,6.90
2019-02-12T16:37:27.283Z,6.90
2019-02-12T16:39:31.875Z,7.00
2019-02-12T16:41:36.391Z,7.00
2019-02-12T16:43:40.903Z,7.10
2019-02-12T16:45:50.031Z,7.00
2019-02-12T16:47:54.065Z,6.90
2019-02-12T16:49:59.715Z,6.90
2019-02-12T16:52:04.075Z,7.00
2019-02-12T16:54:08.967Z,7.00
2019-02-12T16:56:13.634Z,7.10
2019-02-12T16:58:17.931Z,7.10
2019-02-12T17:00:22.497Z,7.00
2019-02-12T17:02:26.876Z,7.00
2019-02-12T17:04:31.067Z,7.10
2019-02-12T17:06:35.327Z,7.00
2019-02-12T17:08:39.157Z,6.90
2019-02-12T17:10:43.157Z,6.90
2019-02-12T17:12:47.164Z,6.80
2019-02-12T17:14:51.919Z,6.90
2019-02-12T17:16:56.068Z,6.90
2019-02-12T17:19:00.559Z,6.70
2019-02-12T17:21:05.526Z,6.70
2019-02-12T17:23:09.963Z,6.60
2019-02-12T17:25:14.778Z,6.70
2019-02-12T17:27:18.889Z,6.70
2019-02-12T17:29:23.138Z,6.70
2019-02-12T17:31:27.199Z,6.70
2019-02-12T17:33:31.410Z,6.70
2019-02-12T17:35:35.347Z,6.80
2019-02-12T17:37:39.907Z,6.80
2019-02-12T17:39:44.787Z,6.80
2019-02-12T17:41:49.229Z,6.80
2019-02-12T17:43:53.912Z,6.80
2019-02-12T17:45:58.721Z,6.80
2019-02-12T17:48:03.100Z,6.80
2019-02-12T17:50:07.959Z,6.80
2019-02-12T17:52:12.382Z,6.80
2019-02-12T17:54:17.451Z,6.80
2019-02-12T17:56:24.993Z,6.80
2019-02-12T17:58:27.542Z,6.70
2019-02-12T18:00:34.225Z,6.70
2019-02-12T18:02:38.873Z,6.70
2019-02-12T18:04:43.494Z,6.70
2019-02-12T18:06:47.715Z,6.70
2019-02-12T18:08:52.354Z,6.70
2019-02-12T18:10:57.491Z,6.80
2019-02-12T18:13:02.001Z,6.80
2019-02-12T18:15:07.470Z,6.80
2019-02-12T18:17:11.531Z,6.80
2019-02-12T18:19:16.434Z,6.80
2019-02-12T18:21:20.987Z,6.70
2019-02-12T18:23:24.511Z,6.80
2019-02-12T18:25:29.219Z,6.80
2019-02-12T18:27:33.948Z,6.80
2019-02-12T18:29:38.125Z,6.70
2019-02-12T18:31:42.912Z,6.60
2019-02-12T18:33:47.002Z,6.70
2019-02-12T18:35:51.638Z,6.70
2019-02-12T18:37:56.067Z,6.70
2019-02-12T18:40:00.271Z,6.70
2019-02-12T18:42:04.337Z,6.70
2019-02-12T18:44:08.751Z,6.70
2019-02-12T18:46:12.724Z,6.70
2019-02-12T18:48:17.188Z,6.60
2019-02-12T18:50:21.907Z,6.70
2019-02-12T18:52:26.588Z,6.70
2019-02-12T18:54:31.654Z,6.70
2019-02-12T18:56:41.523Z,6.70
2019-02-12T18:58:42.101Z,6.70
2019-02-12T19:00:46.939Z,6.70
2019-02-12T19:02:52.235Z,6.70
2019-02-12T19:04:57.296Z,6.70
2019-02-12T19:07:01.835Z,6.60
2019-02-12T19:09:12.323Z,6.60
2019-02-12T19:11:16.240Z,6.60
2019-02-12T19:13:20.988Z,6.70
2019-02-12T19:15:26.076Z,6.60
2019-02-12T19:17:30.351Z,6.60
2019-02-12T19:19:34.787Z,6.60
2019-02-12T19:21:38.742Z,6.60
2019-02-12T19:23:43.946Z,6.60
2019-02-12T19:25:48.183Z,6.70
2019-02-12T19:27:53.408Z,6.70
2019-02-12T19:29:57.711Z,6.60
2019-02-12T19:32:01.624Z,6.60
2019-02-12T19:34:05.724Z,6.60
2019-02-12T19:36:10.367Z,6.60
2019-02-12T19:38:15.427Z,6.70
2019-02-12T19:40:20.384Z,6.60
2019-02-12T19:42:24.329Z,6.60
2019-02-12T19:44:28.269Z,6.60
2019-02-12T19:46:32.163Z,6.60
2019-02-12T19:48:36.975Z,6.60
2019-02-12T19:50:40.875Z,6.60
2019-02-12T19:52:44.756Z,6.50
2019-02-12T19:54:48.643Z,6.50
2019-02-12T19:56:58.289Z,6.50
2019-02-12T19:58:59.502Z,6.50
2019-02-12T20:01:04.038Z,6.50
2019-02-12T20:03:08.059Z,6.50
2019-02-12T20:05:12.388Z,6.50
2019-02-12T20:07:16.288Z,6.50
2019-02-12T20:09:22.672Z,6.50
2019-02-12T20:11:27.118Z,6.50
2019-02-12T20:13:31.333Z,6.50
2019-02-12T20:15:35.959Z,6.50
2019-02-12T20:17:40.704Z,6.50
2019-02-12T20:19:45.203Z,6.40
2019-02-12T20:21:49.657Z,6.40
2019-02-12T20:23:54.111Z,6.40
2019-02-12T20:25:58.585Z,6.50
2019-02-12T20:28:02.843Z,6.40
2019-02-12T20:30:08.451Z,6.30
2019-02-12T20:32:12.966Z,6.30
2019-02-12T20:34:18.019Z,6.40
2019-02-12T20:36:22.250Z,6.40
2019-02-12T20:38:26.686Z,6.40
2019-02-12T20:40:31.140Z,6.60
2019-02-12T20:42:35.443Z,6.50
2019-02-12T20:44:40.519Z,6.40
2019-02-12T20:46:44.687Z,6.60
2019-02-12T20:48:49.240Z,6.50
2019-02-12T20:50:53.435Z,6.40
2019-02-12T20:52:58.026Z,6.30
2019-02-12T20:55:02.219Z,6.30
2019-02-12T20:57:14.556Z,6.30
2019-02-12T20:59:12.387Z,6.40
2019-02-12T21:01:19.170Z,6.30
2019-02-12T21:03:24.239Z,6.30
2019-02-12T21:05:28.706Z,6.20
2019-02-12T21:07:34.035Z,6.20
2019-02-12T21:09:42.549Z,6.20
2019-02-12T21:11:47.380Z,6.30
2019-02-12T21:13:51.357Z,6.30
2019-02-12T21:15:55.751Z,6.20
2019-02-12T21:17:59.602Z,6.20
2019-02-12T21:20:04.656Z,6.30
2019-02-12T21:22:08.549Z,6.30
2019-02-12T21:24:13.788Z,6.20
2019-02-12T21:26:18.276Z,6.20
2019-02-12T21:28:22.763Z,6.20
2019-02-12T21:30:27.254Z,6.20
2019-02-12T21:32:31.854Z,6.20
2019-02-12T21:34:36.347Z,6.20
2019-02-12T21:36:40.351Z,6.20
2019-02-12T21:38:45.055Z,6.30
2019-02-12T21:40:50.380Z,6.20
2019-02-12T21:42:54.853Z,6.20
2019-02-12T21:44:59.191Z,6.20
2019-02-12T21:47:03.618Z,6.20
2019-02-12T21:49:08.788Z,6.30
2019-02-12T21:51:13.923Z,6.30
2019-02-12T21:53:19.277Z,6.30
2019-02-12T21:55:23.966Z,6.30
2019-02-12T21:57:31.808Z,6.30
2019-02-12T21:59:33.720Z,6.30
2019-02-12T22:01:37.594Z,6.30
2019-02-12T22:03:42.114Z,6.30
2019-02-12T22:05:46.292Z,6.20
2019-02-12T22:07:50.719Z,6.20
2019-02-12T22:09:55.784Z,6.20
2019-02-12T22:12:00.384Z,6.20
2019-02-12T22:14:03.634Z,6.20
2019-02-12T22:16:07.754Z,6.20
2019-02-12T22:18:10.799Z,6.20
2019-02-12T22:20:14.619Z,6.30
2019-02-12T22:22:17.582Z,6.20
2019-02-12T22:24:21.445Z,6.20
2019-02-12T22:26:25.351Z,6.20
2019-02-12T22:28:31.126Z,6.30
2019-02-12T22:30:34.739Z,6.30
2019-02-12T22:32:39.284Z,6.30
2019-02-12T22:34:44.297Z,6.30
2019-02-12T22:36:48.559Z,6.30
2019-02-12T22:38:52.934Z,6.30
2019-02-12T22:40:57.840Z,6.30
2019-02-12T22:43:02.114Z,6.30
2019-02-12T22:45:05.782Z,6.30
2019-02-12T22:47:10.616Z,6.30
2019-02-12T22:49:14.528Z,6.30
2019-02-12T22:51:18.759Z,6.30
2019-02-12T22:53:22.021Z,6.30
2019-02-12T22:55:25.613Z,6.30
2019-02-12T22:57:29.013Z,6.20
2019-02-12T22:59:32.262Z,6.30
2019-02-12T23:01:39.479Z,6.30
2019-02-12T23:03:42.469Z,6.20
2019-02-12T23:05:45.487Z,6.20
2019-02-12T23:07:49.376Z,6.20
2019-02-12T23:09:52.925Z,6.30
2019-02-12T23:11:57.136Z,6.20
2019-02-12T23:14:00.614Z,6.30
2019-02-12T23:16:04.311Z,6.20
2019-02-12T23:18:07.863Z,6.20
2019-02-12T23:20:13.157Z,6.20
2019-02-12T23:22:16.374Z,6.20
2019-02-12T23:24:19.596Z,6.20
2019-02-12T23:26:22.898Z,6.20
2019-02-12T23:28:25.817Z,6.20
2019-02-12T23:30:29.639Z,6.20
2019-02-12T23:32:32.827Z,6.20
2019-02-12T23:34:36.319Z,6.20
2019-02-12T23:36:39.503Z,6.20
2019-02-12T23:38:42.719Z,6.20
2019-02-12T23:40:45.723Z,6.20
2019-02-12T23:42:48.742Z,6.10
2019-02-12T23:44:51.678Z,6.10
2019-02-12T23:46:54.730Z,6.10
2019-02-12T23:48:58.405Z,6.20
2019-02-12T23:51:01.610Z,6.20
2019-02-12T23:53:05.175Z,6.20
2019-02-12T23:55:09.547Z,6.10
2019-02-12T23:57:13.395Z,6.10
2019-02-12T23:59:16.335Z,6.20
